sensor_id;sensor_type;location;lat;lon;timestamp;P1;durP1;ratioP1;P2;durP2;ratioP2
42886;SDS011;29032;56.028;92.904;2022-12-01T00:02:55;11.27;;;5.87;;
42886;SDS011;29032;56.028;92.904;2022-12-01T00:08:00;22.27;;;10.03;;
42886;SDS011;29032;56.028;92.904;2022-12-01T00:13:03;25.00;;;8.60;;
42886;SDS011;29032;56.028;92.904;2022-12-01T00:18:06;16.37;;;6.13;;
42886;SDS011;29032;56.028;92.904;2022-12-01T00:23:11;14.93;;;6.57;;
42886;SDS011;29032;56.028;92.904;2022-12-01T00:28:13;18.80;;;6.57;;
42886;SDS011;29032;56.028;92.904;2022-12-01T00:33:15;15.30;;;6.37;;
42886;SDS011;29032;56.028;92.904;2022-12-01T00:38:19;15.93;;;6.60;;
42886;SDS011;29032;56.028;92.904;2022-12-01T00:43:21;14.20;;;6.43;;
42886;SDS011;29032;56.028;92.904;2022-12-01T00:48:23;14.80;;;6.53;;
42886;SDS011;29032;56.028;92.904;2022-12-01T00:53:27;14.73;;;7.10;;
42886;SDS011;29032;56.028;92.904;2022-12-01T00:58:29;27.57;;;9.60;;
42886;SDS011;29032;56.028;92.904;2022-12-01T01:03:32;29.50;;;11.73;;
42886;SDS011;29032;56.028;92.904;2022-12-01T01:08:36;24.37;;;8.23;;
42886;SDS011;29032;56.028;92.904;2022-12-01T01:13:39;31.90;;;11.57;;
42886;SDS011;29032;56.028;92.904;2022-12-01T01:18:41;33.03;;;11.33;;
42886;SDS011;29032;56.028;92.904;2022-12-01T01:23:45;28.10;;;10.10;;
42886;SDS011;29032;56.028;92.904;2022-12-01T01:28:48;22.33;;;7.73;;
42886;SDS011;29032;56.028;92.904;2022-12-01T01:33:51;47.63;;;14.27;;
42886;SDS011;29032;56.028;92.904;2022-12-01T01:38:54;59.00;;;19.20;;
42886;SDS011;29032;56.028;92.904;2022-12-01T01:43:57;35.73;;;14.43;;
42886;SDS011;29032;56.028;92.904;2022-12-01T01:49:01;22.03;;;9.07;;
42886;SDS011;29032;56.028;92.904;2022-12-01T01:54:07;23.40;;;8.43;;
42886;SDS011;29032;56.028;92.904;2022-12-01T01:59:14;17.43;;;7.40;;
42886;SDS011;29032;56.028;92.904;2022-12-01T02:04:20;25.07;;;8.27;;
42886;SDS011;29032;56.028;92.904;2022-12-01T02:09:27;22.30;;;8.80;;
42886;SDS011;29032;56.028;92.904;2022-12-01T02:14:33;19.53;;;8.30;;
42886;SDS011;29032;56.028;92.904;2022-12-01T02:20:05;25.00;;;9.17;;
42886;SDS011;29032;56.028;92.904;2022-12-01T02:25:33;17.53;;;6.97;;
42886;SDS011;29032;56.028;92.904;2022-12-01T02:30:49;19.48;;;6.50;;
42886;SDS011;29032;56.028;92.904;2022-12-01T02:35:55;23.07;;;7.27;;
42886;SDS011;29032;56.028;92.904;2022-12-01T02:41:03;24.93;;;8.77;;
42886;SDS011;29032;56.028;92.904;2022-12-01T02:46:11;22.97;;;8.17;;
42886;SDS011;29032;56.028;92.904;2022-12-01T02:51:18;17.90;;;7.37;;
42886;SDS011;29032;56.028;92.904;2022-12-01T02:56:23;20.47;;;7.30;;
42886;SDS011;29032;56.028;92.904;2022-12-01T03:01:32;22.87;;;8.27;;
42886;SDS011;29032;56.028;92.904;2022-12-01T03:06:46;19.77;;;7.87;;
42886;SDS011;29032;56.028;92.904;2022-12-01T03:11:58;15.73;;;6.80;;
42886;SDS011;29032;56.028;92.904;2022-12-01T03:17:14;17.83;;;7.60;;
42886;SDS011;29032;56.028;92.904;2022-12-01T03:22:22;20.77;;;7.23;;
42886;SDS011;29032;56.028;92.904;2022-12-01T03:27:27;22.83;;;8.37;;
42886;SDS011;29032;56.028;92.904;2022-12-01T03:32:36;24.20;;;7.53;;
42886;SDS011;29032;56.028;92.904;2022-12-01T03:37:43;15.47;;;6.03;;
42886;SDS011;29032;56.028;92.904;2022-12-01T03:42:51;17.00;;;6.43;;
42886;SDS011;29032;56.028;92.904;2022-12-01T03:47:59;11.43;;;6.37;;
42886;SDS011;29032;56.028;92.904;2022-12-01T03:53:03;11.67;;;5.37;;
42886;SDS011;29032;56.028;92.904;2022-12-01T03:58:12;17.97;;;6.90;;
42886;SDS011;29032;56.028;92.904;2022-12-01T04:03:21;14.77;;;5.80;;
42886;SDS011;29032;56.028;92.904;2022-12-01T04:08:25;11.60;;;6.73;;
42886;SDS011;29032;56.028;92.904;2022-12-01T04:13:28;17.73;;;6.10;;
42886;SDS011;29032;56.028;92.904;2022-12-01T04:18:31;11.27;;;6.03;;
42886;SDS011;29032;56.028;92.904;2022-12-01T04:23:33;11.07;;;5.40;;
42886;SDS011;29032;56.028;92.904;2022-12-01T04:28:36;17.37;;;6.33;;
42886;SDS011;29032;56.028;92.904;2022-12-01T04:33:39;16.20;;;6.40;;
42886;SDS011;29032;56.028;92.904;2022-12-01T04:38:41;13.90;;;6.60;;
42886;SDS011;29032;56.028;92.904;2022-12-01T04:43:43;17.13;;;6.10;;
42886;SDS011;29032;56.028;92.904;2022-12-01T04:48:47;18.17;;;5.53;;
42886;SDS011;29032;56.028;92.904;2022-12-01T04:53:49;19.87;;;6.53;;
42886;SDS011;29032;56.028;92.904;2022-12-01T04:58:51;24.60;;;6.67;;
42886;SDS011;29032;56.028;92.904;2022-12-01T05:03:55;15.27;;;5.80;;
42886;SDS011;29032;56.028;92.904;2022-12-01T05:08:58;16.70;;;6.27;;
42886;SDS011;29032;56.028;92.904;2022-12-01T05:14:02;17.53;;;6.60;;
42886;SDS011;29032;56.028;92.904;2022-12-01T05:19:05;15.37;;;5.73;;
42886;SDS011;29032;56.028;92.904;2022-12-01T05:24:08;15.80;;;6.70;;
42886;SDS011;29032;56.028;92.904;2022-12-01T05:29:11;13.87;;;6.27;;
42886;SDS011;29032;56.028;92.904;2022-12-01T05:34:15;11.03;;;4.83;;
42886;SDS011;29032;56.028;92.904;2022-12-01T05:39:17;13.43;;;6.67;;
42886;SDS011;29032;56.028;92.904;2022-12-01T05:44:19;12.63;;;5.73;;
42886;SDS011;29032;56.028;92.904;2022-12-01T05:49:23;11.83;;;4.63;;
42886;SDS011;29032;56.028;92.904;2022-12-01T05:54:25;17.87;;;7.00;;
42886;SDS011;29032;56.028;92.904;2022-12-01T05:59:29;14.13;;;7.30;;
42886;SDS011;29032;56.028;92.904;2022-12-01T06:04:33;15.20;;;5.60;;
42886;SDS011;29032;56.028;92.904;2022-12-01T06:09:35;14.77;;;6.37;;
42886;SDS011;29032;56.028;92.904;2022-12-01T06:14:37;15.87;;;6.00;;
42886;SDS011;29032;56.028;92.904;2022-12-01T06:19:41;13.50;;;5.73;;
42886;SDS011;29032;56.028;92.904;2022-12-01T06:24:43;12.70;;;5.90;;
42886;SDS011;29032;56.028;92.904;2022-12-01T06:29:45;12.90;;;6.03;;
42886;SDS011;29032;56.028;92.904;2022-12-01T06:34:49;11.23;;;5.73;;
42886;SDS011;29032;56.028;92.904;2022-12-01T06:39:51;15.83;;;6.67;;
42886;SDS011;29032;56.028;92.904;2022-12-01T06:44:53;15.63;;;6.20;;
42886;SDS011;29032;56.028;92.904;2022-12-01T06:49:56;21.67;;;7.10;;
42886;SDS011;29032;56.028;92.904;2022-12-01T06:54:58;18.37;;;5.87;;
42886;SDS011;29032;56.028;92.904;2022-12-01T07:00:01;10.97;;;5.13;;
42886;SDS011;29032;56.028;92.904;2022-12-01T07:05:06;12.83;;;5.57;;
42886;SDS011;29032;56.028;92.904;2022-12-01T07:10:09;13.23;;;5.50;;
42886;SDS011;29032;56.028;92.904;2022-12-01T07:15:12;13.03;;;5.43;;
42886;SDS011;29032;56.028;92.904;2022-12-01T07:20:16;18.53;;;6.87;;
42886;SDS011;29032;56.028;92.904;2022-12-01T07:25:18;15.87;;;6.33;;
42886;SDS011;29032;56.028;92.904;2022-12-01T07:30:20;18.23;;;6.73;;
42886;SDS011;29032;56.028;92.904;2022-12-01T07:35:23;13.37;;;5.60;;
42886;SDS011;29032;56.028;92.904;2022-12-01T07:40:26;13.47;;;5.63;;
42886;SDS011;29032;56.028;92.904;2022-12-01T07:45:28;13.37;;;5.07;;
42886;SDS011;29032;56.028;92.904;2022-12-01T07:50:31;15.23;;;5.63;;
42886;SDS011;29032;56.028;92.904;2022-12-01T07:55:33;18.20;;;6.57;;
42886;SDS011;29032;56.028;92.904;2022-12-01T08:00:35;17.93;;;7.10;;
42886;SDS011;29032;56.028;92.904;2022-12-01T08:05:42;18.70;;;6.77;;
42886;SDS011;29032;56.028;92.904;2022-12-01T08:10:44;26.60;;;10.60;;
42886;SDS011;29032;56.028;92.904;2022-12-01T08:15:46;26.40;;;9.83;;
42886;SDS011;29032;56.028;92.904;2022-12-01T08:20:50;32.70;;;11.30;;
42886;SDS011;29032;56.028;92.904;2022-12-01T08:25:59;18.27;;;9.03;;
42886;SDS011;29032;56.028;92.904;2022-12-01T08:31:05;32.60;;;10.63;;
42886;SDS011;29032;56.028;92.904;2022-12-01T08:36:10;25.33;;;10.50;;
42886;SDS011;29032;56.028;92.904;2022-12-01T08:41:12;16.97;;;7.23;;
42886;SDS011;29032;56.028;92.904;2022-12-01T08:46:16;10.40;;;5.23;;
42886;SDS011;29032;56.028;92.904;2022-12-01T08:51:21;10.80;;;4.63;;
42886;SDS011;29032;56.028;92.904;2022-12-01T08:56:25;16.40;;;6.57;;
42886;SDS011;29032;56.028;92.904;2022-12-01T09:01:29;23.93;;;5.60;;
42886;SDS011;29032;56.028;92.904;2022-12-01T09:06:33;8.97;;;4.17;;
42886;SDS011;29032;56.028;92.904;2022-12-01T09:11:38;13.45;;;4.60;;
42886;SDS011;29032;56.028;92.904;2022-12-01T09:16:41;10.70;;;5.17;;
42886;SDS011;29032;56.028;92.904;2022-12-01T09:21:46;12.23;;;5.70;;
42886;SDS011;29032;56.028;92.904;2022-12-01T09:26:48;15.33;;;8.07;;
42886;SDS011;29032;56.028;92.904;2022-12-01T09:31:50;17.17;;;7.90;;
42886;SDS011;29032;56.028;92.904;2022-12-01T09:36:57;20.07;;;7.40;;
42886;SDS011;29032;56.028;92.904;2022-12-01T09:42:00;21.23;;;7.40;;
42886;SDS011;29032;56.028;92.904;2022-12-01T09:47:07;17.90;;;7.00;;
42886;SDS011;29032;56.028;92.904;2022-12-01T09:52:17;17.63;;;6.70;;
42886;SDS011;29032;56.028;92.904;2022-12-01T09:57:23;13.13;;;5.90;;
42886;SDS011;29032;56.028;92.904;2022-12-01T10:02:31;13.97;;;5.43;;
42886;SDS011;29032;56.028;92.904;2022-12-01T10:07:38;11.95;;;4.85;;
42886;SDS011;29032;56.028;92.904;2022-12-01T10:12:47;21.23;;;6.03;;
42886;SDS011;29032;56.028;92.904;2022-12-01T10:17:53;16.13;;;6.00;;
42886;SDS011;29032;56.028;92.904;2022-12-01T10:23:12;19.70;;;7.20;;
42886;SDS011;29032;56.028;92.904;2022-12-01T10:28:30;19.10;;;8.37;;
42886;SDS011;29032;56.028;92.904;2022-12-01T10:33:55;21.00;;;6.80;;
42886;SDS011;29032;56.028;92.904;2022-12-01T10:39:02;26.50;;;8.73;;
42886;SDS011;29032;56.028;92.904;2022-12-01T10:44:05;21.67;;;7.37;;
42886;SDS011;29032;56.028;92.904;2022-12-01T10:49:09;21.90;;;8.70;;
42886;SDS011;29032;56.028;92.904;2022-12-01T10:54:13;21.80;;;8.50;;
42886;SDS011;29032;56.028;92.904;2022-12-01T10:59:26;20.27;;;8.37;;
42886;SDS011;29032;56.028;92.904;2022-12-01T11:04:36;18.37;;;5.83;;
42886;SDS011;29032;56.028;92.904;2022-12-01T11:09:42;16.67;;;7.20;;
42886;SDS011;29032;56.028;92.904;2022-12-01T11:14:47;17.48;;;5.45;;
42886;SDS011;29032;56.028;92.904;2022-12-01T11:19:51;26.67;;;9.20;;
42886;SDS011;29032;56.028;92.904;2022-12-01T11:24:59;18.23;;;8.07;;
42886;SDS011;29032;56.028;92.904;2022-12-01T11:30:04;25.13;;;9.07;;
42886;SDS011;29032;56.028;92.904;2022-12-01T11:35:20;23.05;;;7.97;;
42886;SDS011;29032;56.028;92.904;2022-12-01T11:40:28;20.35;;;7.13;;
42886;SDS011;29032;56.028;92.904;2022-12-01T11:45:32;16.90;;;6.53;;
42886;SDS011;29032;56.028;92.904;2022-12-01T11:50:41;18.13;;;7.05;;
42886;SDS011;29032;56.028;92.904;2022-12-01T11:55:46;21.85;;;6.68;;
42886;SDS011;29032;56.028;92.904;2022-12-01T12:00:50;19.63;;;6.77;;
42886;SDS011;29032;56.028;92.904;2022-12-01T12:06:07;20.53;;;7.37;;
42886;SDS011;29032;56.028;92.904;2022-12-01T12:11:24;17.27;;;6.27;;
42886;SDS011;29032;56.028;92.904;2022-12-01T12:16:37;15.80;;;6.83;;
42886;SDS011;29032;56.028;92.904;2022-12-01T12:21:53;19.17;;;6.33;;
42886;SDS011;29032;56.028;92.904;2022-12-01T12:27:07;17.80;;;6.40;;
42886;SDS011;29032;56.028;92.904;2022-12-01T12:32:21;16.23;;;7.37;;
42886;SDS011;29032;56.028;92.904;2022-12-01T12:37:39;17.37;;;7.00;;
42886;SDS011;29032;56.028;92.904;2022-12-01T12:42:56;19.53;;;7.47;;
42886;SDS011;29032;56.028;92.904;2022-12-01T12:48:13;13.30;;;5.40;;
42886;SDS011;29032;56.028;92.904;2022-12-01T12:53:24;12.17;;;5.50;;
42886;SDS011;29032;56.028;92.904;2022-12-01T12:58:34;10.47;;;4.73;;
42886;SDS011;29032;56.028;92.904;2022-12-01T13:03:41;14.20;;;5.33;;
42886;SDS011;29032;56.028;92.904;2022-12-01T13:08:49;15.07;;;5.53;;
42886;SDS011;29032;56.028;92.904;2022-12-01T13:13:59;14.07;;;5.53;;
42886;SDS011;29032;56.028;92.904;2022-12-01T13:19:06;13.57;;;6.13;;
42886;SDS011;29032;56.028;92.904;2022-12-01T13:24:15;14.77;;;5.47;;
42886;SDS011;29032;56.028;92.904;2022-12-01T13:29:22;16.88;;;6.63;;
42886;SDS011;29032;56.028;92.904;2022-12-01T13:34:28;22.03;;;7.90;;
42886;SDS011;29032;56.028;92.904;2022-12-01T13:39:36;25.87;;;8.07;;
42886;SDS011;29032;56.028;92.904;2022-12-01T13:44:41;21.23;;;8.83;;
42886;SDS011;29032;56.028;92.904;2022-12-01T13:49:46;20.20;;;7.35;;
42886;SDS011;29032;56.028;92.904;2022-12-01T13:55:00;20.77;;;8.03;;
42886;SDS011;29032;56.028;92.904;2022-12-01T14:00:24;23.70;;;8.37;;
42886;SDS011;29032;56.028;92.904;2022-12-01T14:05:43;18.20;;;8.37;;
42886;SDS011;29032;56.028;92.904;2022-12-01T14:10:51;26.50;;;8.50;;
42886;SDS011;29032;56.028;92.904;2022-12-01T14:15:56;19.50;;;8.77;;
42886;SDS011;29032;56.028;92.904;2022-12-01T14:21:01;30.30;;;9.93;;
42886;SDS011;29032;56.028;92.904;2022-12-01T14:26:12;44.60;;;14.60;;
42886;SDS011;29032;56.028;92.904;2022-12-01T14:31:21;38.10;;;12.90;;
42886;SDS011;29032;56.028;92.904;2022-12-01T14:36:27;48.97;;;14.67;;
42886;SDS011;29032;56.028;92.904;2022-12-01T14:41:37;41.43;;;13.97;;
42886;SDS011;29032;56.028;92.904;2022-12-01T14:46:56;44.90;;;13.40;;
42886;SDS011;29032;56.028;92.904;2022-12-01T14:52:03;37.27;;;11.47;;
42886;SDS011;29032;56.028;92.904;2022-12-01T14:57:16;30.33;;;10.23;;
42886;SDS011;29032;56.028;92.904;2022-12-01T15:02:23;28.95;;;10.18;;
42886;SDS011;29032;56.028;92.904;2022-12-01T15:07:26;27.33;;;10.07;;
42886;SDS011;29032;56.028;92.904;2022-12-01T15:12:29;21.57;;;8.67;;
42886;SDS011;29032;56.028;92.904;2022-12-01T15:17:33;38.53;;;12.20;;
42886;SDS011;29032;56.028;92.904;2022-12-01T15:22:36;37.13;;;11.23;;
42886;SDS011;29032;56.028;92.904;2022-12-01T15:27:41;43.37;;;13.60;;
42886;SDS011;29032;56.028;92.904;2022-12-01T15:32:45;32.77;;;11.97;;
42886;SDS011;29032;56.028;92.904;2022-12-01T15:37:47;35.50;;;12.00;;
42886;SDS011;29032;56.028;92.904;2022-12-01T15:43:01;32.87;;;12.43;;
42886;SDS011;29032;56.028;92.904;2022-12-01T15:48:12;41.47;;;14.13;;
42886;SDS011;29032;56.028;92.904;2022-12-01T15:53:18;46.63;;;14.27;;
42886;SDS011;29032;56.028;92.904;2022-12-01T15:58:24;49.13;;;18.43;;
42886;SDS011;29032;56.028;92.904;2022-12-01T16:03:29;51.40;;;13.13;;
42886;SDS011;29032;56.028;92.904;2022-12-01T16:08:32;38.50;;;13.20;;
42886;SDS011;29032;56.028;92.904;2022-12-01T16:13:35;41.10;;;13.20;;
42886;SDS011;29032;56.028;92.904;2022-12-01T16:18:52;39.43;;;13.77;;
42886;SDS011;29032;56.028;92.904;2022-12-01T16:23:57;42.73;;;12.70;;
42886;SDS011;29032;56.028;92.904;2022-12-01T16:29:00;36.07;;;12.50;;
42886;SDS011;29032;56.028;92.904;2022-12-01T16:34:04;51.17;;;14.97;;
42886;SDS011;29032;56.028;92.904;2022-12-01T16:39:06;42.87;;;13.23;;
42886;SDS011;29032;56.028;92.904;2022-12-01T16:44:08;34.27;;;13.57;;
42886;SDS011;29032;56.028;92.904;2022-12-01T16:49:13;42.03;;;13.20;;
42886;SDS011;29032;56.028;92.904;2022-12-01T16:54:15;25.13;;;11.47;;
42886;SDS011;29032;56.028;92.904;2022-12-01T16:59:20;43.37;;;11.37;;
42886;SDS011;29032;56.028;92.904;2022-12-01T17:04:24;29.40;;;8.87;;
42886;SDS011;29032;56.028;92.904;2022-12-01T17:09:26;20.27;;;9.30;;
42886;SDS011;29032;56.028;92.904;2022-12-01T17:14:29;35.07;;;10.17;;
42886;SDS011;29032;56.028;92.904;2022-12-01T17:19:32;27.00;;;11.17;;
42886;SDS011;29032;56.028;92.904;2022-12-01T17:24:34;107.50;;;32.50;;
42886;SDS011;29032;56.028;92.904;2022-12-01T17:29:37;108.40;;;34.83;;
42886;SDS011;29032;56.028;92.904;2022-12-01T17:34:40;152.70;;;41.33;;
42886;SDS011;29032;56.028;92.904;2022-12-01T17:39:43;117.03;;;32.90;;
42886;SDS011;29032;56.028;92.904;2022-12-01T17:44:45;109.37;;;30.73;;
42886;SDS011;29032;56.028;92.904;2022-12-01T17:49:49;97.50;;;27.77;;
42886;SDS011;29032;56.028;92.904;2022-12-01T17:54:51;112.83;;;31.17;;
42886;SDS011;29032;56.028;92.904;2022-12-01T17:59:53;107.27;;;32.77;;
42886;SDS011;29032;56.028;92.904;2022-12-01T18:04:56;138.43;;;40.73;;
42886;SDS011;29032;56.028;92.904;2022-12-01T18:09:59;96.23;;;29.60;;
42886;SDS011;29032;56.028;92.904;2022-12-01T18:15:01;77.73;;;25.47;;
42886;SDS011;29032;56.028;92.904;2022-12-01T18:20:06;80.93;;;24.87;;
42886;SDS011;29032;56.028;92.904;2022-12-01T18:25:09;51.53;;;19.97;;
42886;SDS011;29032;56.028;92.904;2022-12-01T18:30:12;56.43;;;16.63;;
42886;SDS011;29032;56.028;92.904;2022-12-01T18:35:16;39.67;;;13.30;;
42886;SDS011;29032;56.028;92.904;2022-12-01T18:40:18;42.10;;;13.90;;
42886;SDS011;29032;56.028;92.904;2022-12-01T18:45:52;49.60;;;15.10;;
42886;SDS011;29032;56.028;92.904;2022-12-01T18:50:56;41.73;;;15.47;;
42886;SDS011;29032;56.028;92.904;2022-12-01T18:56:02;52.77;;;15.80;;
42886;SDS011;29032;56.028;92.904;2022-12-01T19:01:15;48.27;;;14.97;;
42886;SDS011;29032;56.028;92.904;2022-12-01T19:06:20;42.00;;;13.70;;
42886;SDS011;29032;56.028;92.904;2022-12-01T19:11:23;47.20;;;16.83;;
42886;SDS011;29032;56.028;92.904;2022-12-01T19:16:25;51.83;;;17.13;;
42886;SDS011;29032;56.028;92.904;2022-12-01T19:21:29;50.73;;;18.27;;
42886;SDS011;29032;56.028;92.904;2022-12-01T19:26:31;55.30;;;16.57;;
42886;SDS011;29032;56.028;92.904;2022-12-01T19:31:33;55.53;;;18.90;;
42886;SDS011;29032;56.028;92.904;2022-12-01T19:36:38;48.90;;;16.90;;
42886;SDS011;29032;56.028;92.904;2022-12-01T19:41:40;42.77;;;16.27;;
42886;SDS011;29032;56.028;92.904;2022-12-01T19:46:43;38.60;;;13.70;;
42886;SDS011;29032;56.028;92.904;2022-12-01T19:51:47;35.70;;;12.67;;
42886;SDS011;29032;56.028;92.904;2022-12-01T19:56:49;29.60;;;10.67;;
42886;SDS011;29032;56.028;92.904;2022-12-01T20:01:51;32.57;;;11.80;;
42886;SDS011;29032;56.028;92.904;2022-12-01T20:06:55;35.53;;;11.23;;
42886;SDS011;29032;56.028;92.904;2022-12-01T20:11:57;37.07;;;11.23;;
42886;SDS011;29032;56.028;92.904;2022-12-01T20:16:59;25.83;;;9.33;;
42886;SDS011;29032;56.028;92.904;2022-12-01T20:22:03;29.10;;;9.30;;
42886;SDS011;29032;56.028;92.904;2022-12-01T20:27:05;25.63;;;9.10;;
42886;SDS011;29032;56.028;92.904;2022-12-01T20:32:07;28.67;;;9.27;;
42886;SDS011;29032;56.028;92.904;2022-12-01T20:37:11;29.70;;;10.07;;
42886;SDS011;29032;56.028;92.904;2022-12-01T20:42:13;28.07;;;9.73;;
42886;SDS011;29032;56.028;92.904;2022-12-01T20:47:18;30.80;;;9.63;;
42886;SDS011;29032;56.028;92.904;2022-12-01T20:52:22;25.77;;;8.83;;
42886;SDS011;29032;56.028;92.904;2022-12-01T20:57:24;27.50;;;8.73;;
42886;SDS011;29032;56.028;92.904;2022-12-01T21:02:26;32.83;;;10.27;;
42886;SDS011;29032;56.028;92.904;2022-12-01T21:07:30;26.40;;;10.10;;
42886;SDS011;29032;56.028;92.904;2022-12-01T21:12:32;35.47;;;11.40;;
42886;SDS011;29032;56.028;92.904;2022-12-01T21:17:36;29.03;;;10.43;;
42886;SDS011;29032;56.028;92.904;2022-12-01T21:22:42;38.17;;;13.00;;
42886;SDS011;29032;56.028;92.904;2022-12-01T21:27:46;44.37;;;16.40;;
42886;SDS011;29032;56.028;92.904;2022-12-01T21:32:49;41.37;;;12.90;;
42886;SDS011;29032;56.028;92.904;2022-12-01T21:37:56;33.43;;;12.67;;
42886;SDS011;29032;56.028;92.904;2022-12-01T21:43:04;37.37;;;13.17;;
42886;SDS011;29032;56.028;92.904;2022-12-01T21:48:17;34.80;;;12.13;;
42886;SDS011;29032;56.028;92.904;2022-12-01T21:53:22;26.63;;;11.73;;
42886;SDS011;29032;56.028;92.904;2022-12-01T21:58:28;41.23;;;11.40;;
42886;SDS011;29032;56.028;92.904;2022-12-01T22:03:33;29.90;;;10.37;;
42886;SDS011;29032;56.028;92.904;2022-12-01T22:08:42;26.53;;;9.60;;
42886;SDS011;29032;56.028;92.904;2022-12-01T22:13:48;37.58;;;10.98;;
42886;SDS011;29032;56.028;92.904;2022-12-01T22:18:53;46.75;;;16.33;;
42886;SDS011;29032;56.028;92.904;2022-12-01T22:24:00;64.63;;;21.37;;
42886;SDS011;29032;56.028;92.904;2022-12-01T22:29:26;61.50;;;25.50;;
42886;SDS011;29032;56.028;92.904;2022-12-01T22:34:29;64.77;;;28.60;;
42886;SDS011;29032;56.028;92.904;2022-12-01T22:39:33;56.10;;;24.33;;
42886;SDS011;29032;56.028;92.904;2022-12-01T22:44:35;38.33;;;15.70;;
42886;SDS011;29032;56.028;92.904;2022-12-01T22:49:37;32.93;;;13.90;;
42886;SDS011;29032;56.028;92.904;2022-12-01T22:54:41;27.57;;;12.17;;
42886;SDS011;29032;56.028;92.904;2022-12-01T22:59:45;24.60;;;10.00;;
42886;SDS011;29032;56.028;92.904;2022-12-01T23:04:47;59.83;;;20.63;;
42886;SDS011;29032;56.028;92.904;2022-12-01T23:09:54;65.83;;;22.50;;
42886;SDS011;29032;56.028;92.904;2022-12-01T23:14:59;55.30;;;20.88;;
42886;SDS011;29032;56.028;92.904;2022-12-01T23:20:22;48.92;;;18.63;;
42886;SDS011;29032;56.028;92.904;2022-12-01T23:25:30;74.53;;;23.80;;
42886;SDS011;29032;56.028;92.904;2022-12-01T23:30:34;60.80;;;25.77;;
42886;SDS011;29032;56.028;92.904;2022-12-01T23:35:40;57.63;;;24.03;;
42886;SDS011;29032;56.028;92.904;2022-12-01T23:40:50;45.17;;;19.67;;
42886;SDS011;29032;56.028;92.904;2022-12-01T23:45:56;40.20;;;19.60;;
42886;SDS011;29032;56.028;92.904;2022-12-01T23:51:02;41.20;;;16.37;;
42886;SDS011;29032;56.028;92.904;2022-12-01T23:56:08;33.37;;;13.03;;
